createdAt,value
2022-07-31T00:04:00.564Z,2.67
2022-07-31T00:08:54.463Z,2.67
2022-07-31T00:13:56.558Z,2.45
2022-07-31T00:18:52.948Z,2.58
2022-07-31T00:23:47.476Z,2.67
2022-07-31T00:28:44.727Z,2.50
2022-07-31T00:33:38.680Z,2.10
2022-07-31T00:38:32.699Z,2.85
2022-07-31T00:43:27.492Z,2.72
2022-07-31T00:48:25.938Z,3.05
2022-07-31T00:53:21.615Z,2.35
2022-07-31T00:58:15.736Z,3.35
2022-07-31T01:03:08.889Z,2.40
2022-07-31T01:08:03.320Z,2.50
2022-07-31T01:13:00.726Z,2.70
2022-07-31T01:17:55.871Z,2.53
2022-07-31T01:23:23.029Z,2.30
2022-07-31T01:29:03.158Z,2.53
2022-07-31T01:34:17.236Z,2.45
2022-07-31T01:39:12.120Z,3.05
2022-07-31T01:44:06.892Z,2.40
2022-07-31T01:49:03.172Z,2.30
2022-07-31T01:53:58.103Z,2.47
2022-07-31T01:58:51.516Z,2.47
2022-07-31T02:04:10.359Z,2.30
2022-07-31T02:09:05.328Z,2.45
2022-07-31T02:13:58.359Z,2.75
2022-07-31T02:18:53.752Z,2.25
2022-07-31T02:28:44.875Z,2.55
2022-07-31T02:33:39.284Z,3.47
2022-07-31T02:38:33.640Z,3.03
2022-07-31T02:43:29.461Z,3.08
2022-07-31T02:48:26.208Z,2.67
2022-07-31T02:53:26.005Z,2.85
2022-07-31T02:58:24.373Z,3.17
2022-07-31T03:03:18.218Z,3.65
2022-07-31T03:08:12.420Z,4.03
2022-07-31T03:13:09.639Z,5.03
2022-07-31T03:18:11.273Z,5.25
2022-07-31T03:23:07.539Z,5.03
2022-07-31T03:28:10.155Z,5.03
2022-07-31T03:33:04.915Z,4.65
2022-07-31T03:38:01.492Z,4.97
2022-07-31T03:43:16.564Z,5.63
2022-07-31T03:48:10.953Z,5.85
2022-07-31T03:53:05.814Z,5.43
2022-07-31T03:58:09.386Z,5.47
2022-07-31T04:03:11.325Z,4.72
2022-07-31T04:08:27.890Z,4.53
2022-07-31T04:13:21.134Z,5.40
2022-07-31T04:18:17.144Z,4.82
2022-07-31T04:23:12.053Z,5.70
2022-07-31T04:28:32.763Z,4.78
2022-07-31T04:33:26.388Z,5.00
2022-07-31T04:38:22.391Z,4.45
2022-07-31T04:43:17.408Z,5.30
2022-07-31T04:48:16.176Z,5.75
2022-07-31T04:53:13.596Z,5.70
2022-07-31T04:58:08.261Z,5.68
2022-07-31T05:03:02.132Z,3.83
2022-07-31T05:07:55.458Z,3.70
2022-07-31T05:12:55.094Z,4.57
2022-07-31T05:17:48.627Z,4.35
2022-07-31T05:23:01.301Z,4.45
2022-07-31T05:28:18.355Z,4.93
2022-07-31T05:33:21.300Z,4.88
2022-07-31T05:38:15.021Z,4.30
2022-07-31T05:43:20.314Z,5.40
2022-07-31T05:48:41.619Z,5.40
2022-07-31T05:53:35.862Z,5.28
2022-07-31T05:58:50.258Z,6.03
2022-07-31T06:08:49.502Z,2.88
2022-07-31T06:13:44.184Z,3.50
2022-07-31T06:19:01.211Z,3.13
2022-07-31T06:23:55.637Z,2.75
2022-07-31T06:28:56.226Z,2.70
2022-07-31T06:33:54.072Z,3.93
2022-07-31T06:38:52.118Z,3.55
2022-07-31T06:44:06.740Z,4.15
2022-07-31T06:49:23.454Z,4.07
2022-07-31T06:54:17.656Z,5.57
2022-07-31T06:59:11.734Z,8.20
2022-07-31T07:04:04.667Z,7.93
2022-07-31T07:08:58.805Z,7.75
2022-07-31T07:13:54.107Z,6.03
2022-07-31T07:18:47.457Z,5.20
2022-07-31T07:23:41.081Z,4.82
2022-07-31T07:28:55.285Z,4.28
2022-07-31T07:33:49.795Z,4.15
2022-07-31T07:38:47.475Z,2.63
2022-07-31T07:43:43.433Z,3.15
2022-07-31T07:48:42.355Z,2.08
2022-07-31T07:53:44.850Z,2.35
2022-07-31T07:58:38.645Z,3.00
2022-07-31T08:04:01.581Z,3.85
2022-07-31T08:08:56.182Z,2.88
2022-07-31T08:14:08.094Z,2.70
2022-07-31T08:19:21.637Z,3.25
2022-07-31T08:24:17.653Z,2.75
2022-07-31T08:29:11.953Z,3.70
2022-07-31T08:34:08.371Z,4.30
2022-07-31T08:39:04.153Z,4.70
2022-07-31T08:44:13.272Z,4.85
2022-07-31T08:49:08.041Z,4.85
2022-07-31T08:54:02.328Z,5.75
2022-07-31T08:59:01.429Z,3.33
2022-07-31T09:03:55.413Z,2.85
2022-07-31T09:08:49.979Z,3.13
2022-07-31T09:14:04.541Z,3.45
2022-07-31T09:19:51.874Z,2.60
2022-07-31T09:24:39.467Z,2.17
2022-07-31T09:29:37.376Z,2.15
2022-07-31T09:34:32.696Z,2.60
2022-07-31T09:39:32.087Z,2.30
2022-07-31T09:44:56.361Z,2.35
2022-07-31T09:49:56.466Z,3.10
2022-07-31T09:55:00.475Z,2.10
2022-07-31T09:59:55.503Z,2.67
2022-07-31T10:04:49.652Z,2.30
2022-07-31T10:09:44.403Z,2.22
2022-07-31T10:14:44.637Z,3.10
2022-07-31T10:19:42.520Z,2.80
2022-07-31T10:25:10.458Z,2.60
2022-07-31T10:30:05.245Z,2.42
2022-07-31T10:34:59.033Z,1.85
2022-07-31T10:40:22.201Z,1.52
2022-07-31T10:45:23.231Z,2.20
2022-07-31T10:50:44.980Z,1.90
2022-07-31T10:55:47.232Z,2.33
2022-07-31T11:01:08.199Z,2.13
2022-07-31T11:06:25.212Z,1.48
2022-07-31T11:11:34.709Z,1.40
2022-07-31T11:17:10.964Z,1.08
2022-07-31T11:22:30.624Z,1.52
2022-07-31T11:27:35.735Z,1.45
2022-07-31T11:32:30.131Z,1.30
2022-07-31T11:37:58.174Z,1.33
2022-07-31T11:43:04.954Z,1.00
2022-07-31T11:48:13.833Z,1.30
2022-07-31T11:53:10.336Z,1.10
2022-07-31T11:58:03.809Z,0.80
2022-07-31T12:02:58.189Z,1.08
2022-07-31T12:07:52.751Z,1.00
2022-07-31T12:17:43.741Z,0.95
2022-07-31T12:22:36.764Z,1.00
2022-07-31T12:27:31.028Z,1.17
2022-07-31T12:32:28.691Z,1.07
2022-07-31T12:37:23.594Z,1.08
2022-07-31T12:42:46.772Z,0.82
2022-07-31T12:47:40.883Z,1.25
2022-07-31T12:52:36.021Z,0.88
2022-07-31T12:57:30.708Z,1.10
2022-07-31T13:02:25.170Z,0.85
2022-07-31T13:07:19.474Z,1.20
2022-07-31T13:12:14.260Z,0.93
2022-07-31T13:17:09.461Z,0.80
2022-07-31T13:22:03.852Z,0.93
2022-07-31T13:26:58.841Z,0.80
2022-07-31T13:31:53.822Z,1.02
2022-07-31T13:36:48.250Z,1.25
2022-07-31T13:41:42.624Z,0.67
2022-07-31T13:46:41.236Z,1.00
2022-07-31T13:51:34.963Z,0.90
2022-07-31T13:56:39.422Z,0.60
2022-07-31T14:02:03.849Z,0.60
2022-07-31T14:06:50.284Z,0.90
2022-07-31T14:11:45.781Z,0.80
2022-07-31T14:16:39.860Z,0.73
2022-07-31T14:21:34.803Z,1.00
2022-07-31T14:31:23.163Z,1.08
2022-07-31T14:36:17.404Z,2.22
2022-07-31T14:41:12.600Z,1.00
2022-07-31T14:46:06.741Z,0.80
2022-07-31T14:51:01.044Z,1.17
2022-07-31T14:56:03.668Z,1.00
2022-07-31T15:00:58.745Z,1.23
2022-07-31T15:06:41.466Z,1.07
2022-07-31T15:11:08.141Z,1.00
2022-07-31T15:16:03.625Z,1.13
2022-07-31T15:20:57.070Z,1.17
2022-07-31T15:25:51.215Z,1.45
2022-07-31T15:30:44.376Z,1.38
2022-07-31T15:35:38.309Z,0.90
2022-07-31T15:40:33.044Z,1.30
2022-07-31T15:45:27.025Z,0.90
2022-07-31T15:50:20.818Z,1.15
2022-07-31T15:55:13.497Z,1.00
2022-07-31T16:00:13.506Z,1.10
2022-07-31T16:05:11.952Z,0.85
2022-07-31T16:10:18.112Z,1.10
2022-07-31T16:15:13.498Z,1.00
2022-07-31T16:20:12.743Z,1.38
2022-07-31T16:25:08.286Z,0.70
2022-07-31T16:30:03.006Z,1.10
2022-07-31T16:35:00.659Z,1.30
2022-07-31T16:39:56.397Z,1.17
2022-07-31T16:44:54.901Z,1.50
2022-07-31T16:49:49.251Z,1.23
2022-07-31T16:54:43.472Z,1.17
2022-07-31T16:59:56.435Z,1.17
2022-07-31T17:04:54.096Z,1.50
2022-07-31T17:09:48.362Z,1.30
2022-07-31T17:14:44.246Z,1.65
2022-07-31T17:19:45.407Z,1.15
2022-07-31T17:24:45.463Z,1.30
2022-07-31T17:29:40.469Z,1.60
2022-07-31T17:34:37.458Z,1.15
2022-07-31T17:39:32.285Z,1.23
2022-07-31T17:44:27.282Z,1.20
2022-07-31T17:49:21.467Z,1.30
2022-07-31T17:54:14.694Z,1.67
2022-07-31T17:59:09.747Z,1.70
2022-07-31T18:04:04.721Z,1.50
2022-07-31T18:08:58.234Z,1.48
2022-07-31T18:13:54.179Z,1.70
2022-07-31T18:18:54.304Z,1.58
2022-07-31T18:23:48.981Z,1.88
2022-07-31T18:28:43.422Z,1.80
2022-07-31T18:33:38.390Z,2.10
2022-07-31T18:38:32.292Z,2.33
2022-07-31T18:43:25.931Z,2.05
2022-07-31T18:48:20.885Z,2.10
2022-07-31T18:53:16.373Z,2.92
2022-07-31T18:58:14.007Z,3.38
2022-07-31T19:03:09.943Z,3.40
2022-07-31T19:08:06.100Z,1.55
2022-07-31T19:13:02.189Z,2.20
2022-07-31T19:17:58.734Z,1.50
2022-07-31T19:22:57.942Z,3.22
2022-07-31T19:27:52.599Z,1.67
2022-07-31T19:32:48.890Z,1.67
2022-07-31T19:37:42.641Z,2.30
2022-07-31T19:42:37.559Z,2.03
2022-07-31T19:47:32.779Z,2.13
2022-07-31T19:52:26.552Z,2.28
2022-07-31T19:57:20.924Z,2.30
2022-07-31T20:02:17.080Z,2.50
2022-07-31T20:07:10.660Z,3.50
2022-07-31T20:12:05.433Z,3.72
2022-07-31T20:16:59.412Z,2.60
2022-07-31T20:21:53.556Z,3.42
2022-07-31T20:26:47.475Z,3.15
2022-07-31T20:31:41.073Z,2.55
2022-07-31T20:36:34.901Z,3.15
2022-07-31T20:41:29.427Z,3.08
2022-07-31T20:46:23.486Z,2.88
2022-07-31T20:51:21.405Z,2.47
2022-07-31T20:56:15.644Z,2.33
2022-07-31T21:01:10.073Z,2.33
2022-07-31T21:06:03.497Z,2.70
2022-07-31T21:10:59.644Z,2.67
2022-07-31T21:20:50.668Z,2.90
2022-07-31T21:25:48.628Z,3.25
2022-07-31T21:30:43.322Z,2.38
2022-07-31T21:35:37.680Z,2.85
2022-07-31T21:40:34.461Z,2.47
2022-07-31T21:45:29.704Z,2.60
2022-07-31T21:50:44.888Z,2.72
2022-07-31T21:55:39.830Z,3.10
2022-07-31T22:00:35.128Z,2.85
2022-07-31T22:05:46.905Z,2.80
2022-07-31T22:10:40.212Z,2.95
2022-07-31T22:15:54.313Z,3.10
2022-07-31T22:20:47.468Z,2.95
2022-07-31T22:25:41.056Z,3.28
2022-07-31T22:30:35.591Z,2.90
2022-07-31T22:35:29.851Z,3.25
2022-07-31T22:40:24.091Z,3.05
2022-07-31T22:45:18.573Z,3.33
2022-07-31T22:50:14.065Z,2.65
2022-07-31T22:55:07.931Z,2.50
2022-07-31T23:00:01.529Z,2.97
2022-07-31T23:04:55.607Z,3.08
2022-07-31T23:09:49.513Z,2.72
2022-07-31T23:14:43.517Z,2.67
2022-07-31T23:19:38.433Z,3.08
2022-07-31T23:24:33.203Z,3.45
2022-07-31T23:29:28.466Z,2.80
2022-07-31T23:34:23.064Z,2.65
2022-07-31T23:39:18.004Z,2.50
2022-07-31T23:44:11.056Z,2.72
2022-07-31T23:49:04.543Z,2.35
2022-07-31T23:53:59.282Z,2.78
2022-07-31T23:58:52.916Z,2.40
